Time,TemperatureF,DewpointF,PressureIn,WindDirection,WindDirectionDegrees,WindSpeedMPH,WindSpeedGustMPH,Humidity,HourlyPrecipIn,Conditions,Clouds,dailyrainin,SoftwareType,DateUTC
2013-05-21 00:01:00,62.0,42.0,29.93,East,99,0.0,0.0,47,0.00,,,0.00,,2013-05-21 07:01:00,
2013-05-21 00:11:00,62.0,42.0,29.93,East,99,0.0,0.0,47,0.00,,,0.00,,2013-05-21 07:11:00,
2013-05-21 00:21:00,61.0,42.0,29.93,East,99,0.0,0.0,50,0.00,,,0.00,,2013-05-21 07:21:00,
2013-05-21 00:31:00,60.0,43.0,29.93,East,99,0.0,0.0,53,0.00,,,0.00,,2013-05-21 07:31:00,
2013-05-21 00:41:00,60.0,43.0,29.93,East,99,0.0,0.0,53,0.00,,,0.00,,2013-05-21 07:41:00,
2013-05-21 00:52:00,60.0,43.0,29.93,East,99,0.0,0.0,54,0.00,,,0.00,,2013-05-21 07:52:00,
2013-05-21 01:01:00,59.0,44.0,29.93,East,99,0.0,0.0,57,0.00,,,0.00,,2013-05-21 08:01:00,
2013-05-21 01:11:00,59.0,44.0,29.93,East,99,0.0,0.0,57,0.00,,,0.00,,2013-05-21 08:11:00,
2013-05-21 01:21:00,59.0,44.0,29.92,East,99,0.0,1.0,57,0.00,,,0.00,,2013-05-21 08:21:00,
2013-05-21 01:31:00,58.0,43.0,29.92,East,99,1.0,2.0,57,0.00,,,0.00,,2013-05-21 08:31:00,
2013-05-21 01:41:00,58.0,42.0,29.92,NNE,26,0.0,2.0,55,0.00,,,0.00,,2013-05-21 08:41:00,
2013-05-21 01:52:00,58.0,42.0,29.92,NNE,26,0.0,2.0,55,0.00,,,0.00,,2013-05-21 08:52:00,
2013-05-21 02:01:00,58.0,41.0,29.92,ENE,78,0.0,3.0,54,0.00,,,0.00,,2013-05-21 09:01:00,
2013-05-21 02:11:00,58.0,41.0,29.92,ENE,78,0.0,3.0,54,0.00,,,0.00,,2013-05-21 09:11:00,
2013-05-21 02:21:00,58.0,41.0,29.92,ENE,78,0.0,2.0,53,0.00,,,0.00,,2013-05-21 09:21:00,
2013-05-21 02:32:00,58.0,41.0,29.92,SSW,204,0.0,1.0,54,0.00,,,0.00,,2013-05-21 09:32:00,
2013-05-21 02:41:00,58.0,41.0,29.92,SSW,204,0.0,1.0,54,0.00,,,0.00,,2013-05-21 09:41:00,
2013-05-21 02:53:00,57.0,41.0,29.91,South,175,0.0,2.0,56,0.00,,,0.00,,2013-05-21 09:53:00,
2013-05-21 03:02:00,57.0,41.0,29.91,South,177,0.0,2.0,56,0.00,,,0.00,,2013-05-21 10:02:00,
2013-05-21 03:12:00,57.0,41.0,29.91,South,177,0.0,2.0,56,0.00,,,0.00,,2013-05-21 10:12:00,
2013-05-21 03:22:00,56.0,41.0,29.91,SE,128,0.0,2.0,56,0.00,,,0.00,,2013-05-21 10:22:00,
2013-05-21 03:32:00,56.0,40.0,29.90,SE,128,0.0,2.0,55,0.00,,,0.00,,2013-05-21 10:32:00,
2013-05-21 03:41:00,56.0,40.0,29.90,SE,128,0.0,2.0,55,0.00,,,0.00,,2013-05-21 10:41:00,
2013-05-21 03:52:00,56.0,41.0,29.91,SE,128,0.0,1.0,56,0.00,,,0.00,,2013-05-21 10:52:00,
2013-05-21 04:02:00,56.0,41.0,29.91,SE,140,0.0,3.0,57,0.00,,,0.00,,2013-05-21 11:02:00,
2013-05-21 04:11:00,56.0,41.0,29.91,SE,140,0.0,3.0,57,0.00,,,0.00,,2013-05-21 11:11:00,
2013-05-21 04:21:00,55.0,41.0,29.91,SE,140,0.0,3.0,59,0.00,,,0.00,,2013-05-21 11:21:00,
2013-05-21 04:31:00,54.0,40.0,29.91,SE,140,0.0,1.0,60,0.00,,,0.00,,2013-05-21 11:31:00,
2013-05-21 04:41:00,54.0,40.0,29.91,SE,140,0.0,1.0,60,0.00,,,0.00,,2013-05-21 11:41:00,
2013-05-21 04:52:00,54.0,41.0,29.91,SE,141,1.0,2.0,61,0.00,,,0.00,,2013-05-21 11:52:00,
2013-05-21 05:01:00,54.0,41.0,29.91,SE,141,0.0,1.0,61,0.00,,,0.00,,2013-05-21 12:01:00,
2013-05-21 05:11:00,54.0,41.0,29.91,SE,141,0.0,1.0,61,0.00,,,0.00,,2013-05-21 12:11:00,
2013-05-21 05:21:00,54.0,40.0,29.92,NE,55,0.0,1.0,60,0.00,,,0.00,,2013-05-21 12:21:00,
2013-05-21 05:31:00,54.0,40.0,29.92,East,90,2.0,3.0,59,0.00,,,0.00,,2013-05-21 12:31:00,
2013-05-21 05:41:00,54.0,40.0,29.92,East,90,2.0,3.0,59,0.00,,,0.00,,2013-05-21 12:41:00,
2013-05-21 05:51:00,54.0,40.0,29.93,East,82,0.0,2.0,60,0.00,,,0.00,,2013-05-21 12:51:00,
2013-05-21 06:01:00,54.0,40.0,29.93,SE,138,1.0,2.0,59,0.00,,,0.00,,2013-05-21 13:01:00,
2013-05-21 06:11:00,54.0,40.0,29.93,SE,138,1.0,2.0,59,0.00,,,0.00,,2013-05-21 13:11:00,
2013-05-21 06:22:00,54.0,40.0,29.94,SE,138,0.0,4.0,59,0.00,,,0.00,,2013-05-21 13:22:00,
2013-05-21 06:31:00,54.0,40.0,29.94,SE,129,1.0,3.0,58,0.00,,,0.00,,2013-05-21 13:31:00,
2013-05-21 06:41:00,54.0,40.0,29.94,SE,129,1.0,3.0,58,0.00,,,0.00,,2013-05-21 13:41:00,
2013-05-21 06:52:00,54.0,39.0,29.95,ENE,70,1.0,2.0,56,0.00,,,0.00,,2013-05-21 13:52:00,
2013-05-21 07:01:00,53.0,38.0,29.95,South,172,1.0,2.0,57,0.00,,,0.00,,2013-05-21 14:01:00,
2013-05-21 07:11:00,53.0,38.0,29.95,South,172,1.0,2.0,57,0.00,,,0.00,,2013-05-21 14:11:00,
2013-05-21 07:21:00,52.0,38.0,29.96,South,174,1.0,4.0,58,0.00,,,0.00,,2013-05-21 14:21:00,
2013-05-21 07:31:00,52.0,38.0,29.96,South,190,1.0,3.0,59,0.00,,,0.00,,2013-05-21 14:31:00,
2013-05-21 07:41:00,52.0,38.0,29.96,South,190,1.0,3.0,59,0.00,,,0.00,,2013-05-21 14:41:00,
2013-05-21 07:52:00,52.0,39.0,29.96,SE,126,2.0,4.0,61,0.00,,,0.00,,2013-05-21 14:52:00,
2013-05-21 08:01:00,52.0,40.0,29.97,WSW,239,1.0,7.0,64,0.00,,,0.00,,2013-05-21 15:01:00,
2013-05-21 08:11:00,52.0,40.0,29.97,WSW,239,1.0,7.0,64,0.00,,,0.00,,2013-05-21 15:11:00,
2013-05-21 08:21:00,53.0,42.0,29.97,SSE,151,1.0,4.0,66,0.00,,,0.00,,2013-05-21 15:21:00,
2013-05-21 08:32:00,54.0,42.0,29.98,WNW,303,1.0,3.0,64,0.00,,,0.00,,2013-05-21 15:32:00,
2013-05-21 08:42:00,56.0,43.0,29.98,SSW,203,0.0,4.0,61,0.00,,,0.00,,2013-05-21 15:42:00,
2013-05-21 08:52:00,56.0,43.0,29.98,SSW,203,0.0,4.0,61,0.00,,,0.00,,2013-05-21 15:52:00,
2013-05-21 09:02:00,58.0,44.0,29.98,NNE,30,1.0,3.0,59,0.00,,,0.00,,2013-05-21 16:02:00,
2013-05-21 09:12:00,58.0,44.0,29.98,NNE,30,1.0,3.0,59,0.00,,,0.00,,2013-05-21 16:12:00,
2013-05-21 09:23:00,60.0,44.0,29.98,NNE,23,1.0,3.0,55,0.00,,,0.00,,2013-05-21 16:23:00,
2013-05-21 09:32:00,60.0,44.0,29.98,SSW,199,2.0,7.0,56,0.00,,,0.00,,2013-05-21 16:32:00,
2013-05-21 09:42:00,61.0,45.0,29.98,SSE,165,1.0,4.0,56,0.00,,,0.00,,2013-05-21 16:42:00,
2013-05-21 09:52:00,61.0,45.0,29.98,SSE,165,1.0,4.0,56,0.00,,,0.00,,2013-05-21 16:52:00,
2013-05-21 10:02:00,63.0,47.0,29.98,West,277,2.0,5.0,55,0.00,,,0.00,,2013-05-21 17:02:00,
2013-05-21 10:11:00,63.0,47.0,29.98,West,277,2.0,5.0,55,0.00,,,0.00,,2013-05-21 17:11:00,
2013-05-21 10:22:00,63.0,47.0,29.99,North,360,1.0,5.0,56,0.00,,,0.00,,2013-05-21 17:22:00,
2013-05-21 10:32:00,63.0,47.0,29.99,WSW,240,2.0,6.0,56,0.00,,,0.00,,2013-05-21 17:32:00,
2013-05-21 10:43:00,63.0,47.0,29.99,West,263,2.0,6.0,56,0.00,,,0.00,,2013-05-21 17:43:00,
2013-05-21 10:52:00,63.0,47.0,29.99,West,263,2.0,6.0,56,0.00,,,0.00,,2013-05-21 17:52:00,
2013-05-21 11:01:00,64.0,49.0,29.99,ESE,116,2.0,8.0,58,0.00,,,0.00,,2013-05-21 18:01:00,
2013-05-21 11:11:00,64.0,49.0,29.99,ESE,116,2.0,8.0,58,0.00,,,0.00,,2013-05-21 18:11:00,
2013-05-21 11:22:00,64.0,45.0,29.99,South,190,2.0,8.0,51,0.00,,,0.00,,2013-05-21 18:22:00,
2013-05-21 11:32:00,65.0,46.0,29.99,East,88,2.0,7.0,51,0.00,,,0.00,,2013-05-21 18:32:00,
2013-05-21 11:41:00,65.0,44.0,29.99,SSE,163,2.0,9.0,46,0.00,,,0.00,,2013-05-21 18:41:00,
2013-05-21 11:52:00,65.0,44.0,29.99,SSE,163,2.0,9.0,46,0.00,,,0.00,,2013-05-21 18:52:00,
2013-05-21 12:01:00,67.0,46.0,29.98,SSW,202,3.0,8.0,46,0.00,,,0.00,,2013-05-21 19:01:00,
2013-05-21 12:11:00,67.0,46.0,29.98,SSW,202,3.0,8.0,46,0.00,,,0.00,,2013-05-21 19:11:00,
2013-05-21 12:21:00,68.0,48.0,29.98,WNW,290,2.0,6.0,48,0.00,,,0.00,,2013-05-21 19:21:00,
2013-05-21 12:31:00,68.0,44.0,29.97,SSW,200,3.0,8.0,42,0.00,,,0.00,,2013-05-21 19:31:00,
2013-05-21 12:41:00,68.0,44.0,29.97,SSW,200,3.0,8.0,42,0.00,,,0.00,,2013-05-21 19:41:00,
2013-05-21 12:52:00,68.0,44.0,29.97,ESE,112,3.0,7.0,42,0.00,,,0.00,,2013-05-21 19:52:00,
2013-05-21 13:03:00,68.0,46.0,29.98,WSW,254,1.0,7.0,45,0.00,,,0.00,,2013-05-21 20:03:00,
2013-05-21 13:11:00,68.0,46.0,29.98,WSW,254,1.0,7.0,45,0.00,,,0.00,,2013-05-21 20:11:00,
2013-05-21 13:21:00,68.0,45.0,29.97,SE,146,3.0,8.0,44,0.00,,,0.00,,2013-05-21 20:21:00,
2013-05-21 13:32:00,69.0,45.0,29.97,NNE,32,2.0,8.0,42,0.00,,,0.00,,2013-05-21 20:32:00,
2013-05-21 13:42:00,69.0,45.0,29.97,NNE,32,2.0,8.0,42,0.00,,,0.00,,2013-05-21 20:42:00,
2013-05-21 13:52:00,70.0,44.0,29.96,WNW,291,2.0,6.0,39,0.00,,,0.00,,2013-05-21 20:52:00,
2013-05-21 14:01:00,71.0,44.0,29.96,NW,313,2.0,8.0,38,0.00,,,0.00,,2013-05-21 21:01:00,
2013-05-21 14:11:00,71.0,44.0,29.96,NW,313,2.0,8.0,38,0.00,,,0.00,,2013-05-21 21:11:00,
2013-05-21 14:21:00,71.0,47.0,29.96,SW,232,3.0,9.0,42,0.00,,,0.00,,2013-05-21 21:21:00,
2013-05-21 14:32:00,71.0,46.0,29.96,ENE,61,2.0,6.0,41,0.00,,,0.00,,2013-05-21 21:32:00,
2013-05-21 14:43:00,71.0,46.0,29.96,ENE,61,2.0,6.0,41,0.00,,,0.00,,2013-05-21 21:43:00,
2013-05-21 14:54:00,71.0,43.0,29.96,SSE,166,2.0,11.0,37,0.00,,,0.00,,2013-05-21 21:54:00,
2013-05-21 15:02:00,70.0,44.0,29.95,NE,44,2.0,8.0,39,0.00,,,0.00,,2013-05-21 22:02:00,
2013-05-21 15:12:00,70.0,44.0,29.95,NE,44,2.0,8.0,39,0.00,,,0.00,,2013-05-21 22:12:00,
2013-05-21 15:22:00,71.0,44.0,29.96,NW,316,2.0,9.0,38,0.00,,,0.00,,2013-05-21 22:22:00,
2013-05-21 15:33:00,70.0,44.0,29.95,South,186,3.0,9.0,39,0.00,,,0.00,,2013-05-21 22:33:00,
2013-05-21 15:41:00,70.0,44.0,29.95,South,186,3.0,9.0,39,0.00,,,0.00,,2013-05-21 22:41:00,
2013-05-21 15:52:00,71.0,45.0,29.94,WSW,246,3.0,10.0,39,0.00,,,0.00,,2013-05-21 22:52:00,
2013-05-21 16:02:00,71.0,47.0,29.94,WSW,253,2.0,11.0,43,0.00,,,0.00,,2013-05-21 23:02:00,
2013-05-21 16:12:00,71.0,47.0,29.94,WSW,253,2.0,11.0,43,0.00,,,0.00,,2013-05-21 23:12:00,
2013-05-21 16:22:00,71.0,45.0,29.93,NE,45,3.0,5.0,40,0.00,,,0.00,,2013-05-21 23:22:00,
2013-05-21 16:32:00,70.0,46.0,29.93,NE,56,1.0,7.0,43,0.00,,,0.00,,2013-05-21 23:32:00,
2013-05-21 16:42:00,71.0,46.0,29.92,ESE,113,3.0,7.0,41,0.00,,,0.00,,2013-05-21 23:42:00,
2013-05-21 16:52:00,71.0,46.0,29.92,ESE,113,3.0,7.0,41,0.00,,,0.00,,2013-05-21 23:52:00,
2013-05-21 17:01:00,70.0,46.0,29.92,ENE,78,2.0,9.0,42,0.00,,,0.00,,2013-05-22 00:01:00,
2013-05-21 17:11:00,70.0,46.0,29.92,ENE,78,2.0,9.0,42,0.00,,,0.00,,2013-05-22 00:11:00,
2013-05-21 17:21:00,70.0,45.0,29.92,NNE,15,3.0,7.0,41,0.00,,,0.00,,2013-05-22 00:21:00,
2013-05-21 17:31:00,70.0,46.0,29.92,North,355,2.0,7.0,42,0.00,,,0.00,,2013-05-22 00:31:00,
2013-05-21 17:41:00,70.0,46.0,29.92,North,355,2.0,7.0,42,0.00,,,0.00,,2013-05-22 00:41:00,
2013-05-21 17:52:00,70.0,46.0,29.92,NNW,330,3.0,10.0,43,0.00,,,0.00,,2013-05-22 00:52:00,
2013-05-21 18:01:00,69.0,46.0,29.92,NNW,347,1.0,5.0,43,0.00,,,0.00,,2013-05-22 01:01:00,
2013-05-21 18:11:00,69.0,46.0,29.92,NNW,347,1.0,5.0,43,0.00,,,0.00,,2013-05-22 01:11:00,
2013-05-21 18:21:00,68.0,46.0,29.91,North,9,2.0,10.0,45,0.00,,,0.00,,2013-05-22 01:21:00,
2013-05-21 18:31:00,67.0,46.0,29.91,ESE,121,2.0,5.0,46,0.00,,,0.00,,2013-05-22 01:31:00,
2013-05-21 18:41:00,67.0,46.0,29.91,ESE,121,2.0,5.0,46,0.00,,,0.00,,2013-05-22 01:41:00,
2013-05-21 18:52:00,65.0,44.0,29.91,East,87,2.0,5.0,47,0.00,,,0.00,,2013-05-22 01:52:00,
2013-05-21 19:01:00,64.0,44.0,29.91,West,274,2.0,5.0,48,0.00,,,0.00,,2013-05-22 02:01:00,
2013-05-21 19:11:00,64.0,44.0,29.91,West,274,2.0,5.0,48,0.00,,,0.00,,2013-05-22 02:11:00,
2013-05-21 19:21:00,63.0,43.0,29.92,NE,37,2.0,4.0,48,0.00,,,0.00,,2013-05-22 02:21:00,
2013-05-21 19:31:00,62.0,44.0,29.92,NE,40,1.0,3.0,51,0.00,,,0.00,,2013-05-22 02:31:00,
2013-05-21 19:41:00,61.0,43.0,29.92,NW,309,2.0,4.0,51,0.00,,,0.00,,2013-05-22 02:41:00,
2013-05-21 19:52:00,61.0,43.0,29.92,NW,309,2.0,4.0,51,0.00,,,0.00,,2013-05-22 02:52:00,
2013-05-21 20:01:00,60.0,42.0,29.93,ESE,116,2.0,7.0,52,0.00,,,0.00,,2013-05-22 03:01:00,
2013-05-21 20:11:00,60.0,42.0,29.93,ESE,116,2.0,7.0,52,0.00,,,0.00,,2013-05-22 03:11:00,
2013-05-21 20:21:00,58.0,42.0,29.93,NNE,22,1.0,14.0,55,0.00,,,0.00,,2013-05-22 03:21:00,
2013-05-21 20:33:00,57.0,41.0,29.94,WSW,240,1.0,5.0,56,0.00,,,0.00,,2013-05-22 03:33:00,
2013-05-21 20:43:00,55.0,41.0,29.94,South,172,2.0,5.0,59,0.00,,,0.00,,2013-05-22 03:43:00,
2013-05-21 20:53:00,55.0,41.0,29.94,South,172,2.0,5.0,59,0.00,,,0.00,,2013-05-22 03:53:00,
2013-05-21 21:03:00,54.0,41.0,29.94,NE,34,2.0,6.0,61,0.00,,,0.00,,2013-05-22 04:03:00,
2013-05-21 21:12:00,54.0,41.0,29.94,NE,34,2.0,6.0,61,0.00,,,0.00,,2013-05-22 04:12:00,
2013-05-21 21:22:00,53.0,40.0,29.94,South,173,2.0,7.0,61,0.00,,,0.00,,2013-05-22 04:22:00,
2013-05-21 21:33:00,52.0,40.0,29.96,SW,218,1.0,5.0,63,0.00,,,0.00,,2013-05-22 04:33:00,
2013-05-21 21:42:00,51.0,39.0,29.97,SSE,165,1.0,6.0,64,0.00,,,0.00,,2013-05-22 04:42:00,
2013-05-21 21:53:00,51.0,39.0,29.97,SSE,165,1.0,6.0,64,0.00,,,0.00,,2013-05-22 04:53:00,
2013-05-21 22:02:00,51.0,39.0,29.97,North,10,1.0,3.0,64,0.00,,,0.00,,2013-05-22 05:02:00,
2013-05-21 22:11:00,51.0,39.0,29.97,North,10,1.0,3.0,64,0.00,,,0.00,,2013-05-22 05:11:00,
2013-05-21 22:21:00,50.0,38.0,29.97,SSE,147,1.0,3.0,64,0.00,,,0.00,,2013-05-22 05:21:00,
2013-05-21 22:31:00,49.0,38.0,29.97,West,280,1.0,3.0,65,0.00,,,0.00,,2013-05-22 05:31:00,
2013-05-21 22:42:00,49.0,38.0,29.97,West,280,1.0,3.0,65,0.00,,,0.00,,2013-05-22 05:42:00,
2013-05-21 22:52:00,49.0,38.0,29.98,NNE,12,1.0,4.0,65,0.00,,,0.00,,2013-05-22 05:52:00,
2013-05-21 23:01:00,48.0,38.0,29.98,WSW,248,1.0,4.0,67,0.00,,,0.00,,2013-05-22 06:01:00,
2013-05-21 23:11:00,48.0,38.0,29.98,WSW,248,1.0,4.0,67,0.00,,,0.00,,2013-05-22 06:11:00,
2013-05-21 23:21:00,48.0,38.0,29.98,South,181,1.0,2.0,67,0.00,,,0.00,,2013-05-22 06:21:00,
2013-05-21 23:31:00,47.0,37.0,29.98,SW,236,1.0,3.0,67,0.00,,,0.00,,2013-05-22 06:31:00,
2013-05-21 23:41:00,47.0,36.0,29.98,South,178,1.0,3.0,66,0.00,,,0.00,,2013-05-22 06:41:00,
2013-05-21 23:52:00,47.0,36.0,29.98,South,178,1.0,3.0,66,0.00,,,0.00,,2013-05-22 06:52:00,